Time;durP1;ratioP1;P1;durP2;ratioP2;P2;SDS_P1;SDS_P2;PMS_P1;PMS_P2;Temp;Humidity;BMP_temperature;BMP_pressure;BME280_temperature;BME280_humidity;BME280_pressure;Samples;Min_cycle;Max_cycle;Signal;HPM_P1;HPM_P2
2021/01/20 09:45:26;;;;;;;97.35;56.75;;;4.70;31.70;;;;;;5085747;28;20052;-71
2021/01/20 09:47:54;;;;;;;97.57;52.92;;;5.00;32.10;;;;;;5071473;28;20043;-72
2021/01/20 09:50:19;;;;;;;86.40;49.55;;;5.10;31.50;;;;;;5073847;28;20035;-74
2021/01/20 09:52:47;;;;;;;82.22;45.83;;;5.20;31.30;;;;;;5065993;28;20020;-73
2021/01/20 09:55:14;;;;;;;72.20;41.25;;;5.00;30.90;;;;;;5093191;28;20099;-70
2021/01/20 09:57:40;;;;;;;68.35;39.13;;;5.30;31.60;;;;;;5074625;28;20058;-71
2021/01/20 10:00:08;;;;;;;63.08;35.35;;;5.30;30.70;;;;;;5091806;28;20031;-72
2021/01/20 10:02:34;;;;;;;67.78;40.00;;;5.70;31.20;;;;;;5092262;28;20020;-69
2021/01/20 10:05:00;;;;;;;58.85;34.53;;;6.10;31.20;;;;;;5074232;28;20454;-70
2021/01/20 10:07:25;;;;;;;57.88;33.22;;;6.40;30.70;;;;;;5074479;28;20032;-73
2021/01/20 10:09:52;;;;;;;66.75;32.83;;;6.30;30.20;;;;;;5092858;28;20035;-71
2021/01/20 10:12:20;;;;;;;54.35;31.77;;;6.30;29.90;;;;;;5092483;28;20020;-72
2021/01/20 10:14:46;;;;;;;63.78;36.67;;;6.20;30.00;;;;;;5092957;28;20065;-71
2021/01/20 10:17:12;;;;;;;59.80;34.85;;;6.20;29.90;;;;;;5092625;28;20020;-72
2021/01/20 10:19:38;;;;;;;78.10;40.28;;;5.90;29.90;;;;;;5074866;28;20588;-70
2021/01/20 10:22:04;;;;;;;78.65;43.83;;;6.00;30.00;;;;;;5092312;28;20059;-73
2021/01/20 10:24:30;;;;;;;76.38;42.55;;;5.80;30.00;;;;;;5092939;28;20020;-72
2021/01/20 10:26:56;;;;;;;79.50;43.50;;;5.90;30.30;;;;;;5074435;28;20112;-72
2021/01/20 10:29:22;;;;;;;79.72;42.72;;;5.80;29.90;;;;;;5074711;28;20028;-72
2021/01/20 10:31:47;;;;;;;79.78;42.38;;;5.80;30.20;;;;;;5092874;28;20394;-70
2021/01/20 10:34:13;;;;;;;78.22;41.65;;;5.80;30.00;;;;;;5085892;28;20032;-70
2021/01/20 10:36:40;;;;;;;71.88;39.70;;;5.50;29.80;;;;;;5085416;28;20569;-70
2021/01/20 10:39:08;;;;;;;77.95;42.05;;;5.50;29.90;;;;;;5074405;28;20031;-70
2021/01/20 10:41:34;;;;;;;65.63;38.13;;;5.70;30.30;;;;;;5074735;28;20424;-71
2021/01/20 10:44:00;;;;;;;64.35;35.72;;;6.00;30.20;;;;;;5074592;28;20107;-73
2021/01/20 10:46:26;;;;;;;56.92;32.75;;;6.30;30.20;;;;;;5072765;28;20071;-71
2021/01/20 10:48:53;;;;;;;61.15;33.83;;;6.80;29.80;;;;;;5090875;28;20441;-71
2021/01/20 10:51:19;;;;;;;46.05;27.45;;;6.80;29.60;;;;;;5074359;28;20085;-72
2021/01/20 10:53:45;;;;;;;47.05;25.27;;;7.00;29.50;;;;;;5091938;28;20036;-70
2021/01/20 10:56:11;;;;;;;45.25;24.40;;;7.20;29.10;;;;;;5086149;28;20039;-68
2021/01/20 10:58:37;;;;;;;38.35;22.95;;;7.40;28.40;;;;;;5092443;28;20101;-69
2021/01/20 11:01:04;;;;;;;46.55;24.45;;;7.50;28.20;;;;;;5091457;28;20468;-73
2021/01/20 11:03:30;;;;;;;38.70;23.58;;;7.50;27.80;;;;;;5091745;28;20028;-72
2021/01/20 11:05:56;;;;;;;45.30;25.48;;;7.10;27.50;;;;;;5092446;28;20103;-70
2021/01/20 11:08:22;;;;;;;54.63;27.95;;;6.70;27.50;;;;;;5074205;28;20055;-69
2021/01/20 11:10:48;;;;;;;48.80;25.58;;;6.70;27.90;;;;;;5092638;28;20378;-70
2021/01/20 11:13:14;;;;;;;46.47;26.95;;;6.80;27.90;;;;;;5074024;28;20080;-69
2021/01/20 11:15:48;;;;;;;50.63;28.33;;;6.70;28.10;;;;;;5073079;28;20090;-69
2021/01/20 11:18:16;;;;;;;51.00;29.75;;;6.70;28.20;;;;;;5070514;28;20035;-69
2021/01/20 11:20:43;;;;;;;52.15;28.67;;;6.70;28.20;;;;;;5090585;28;20024;-69
2021/01/20 11:23:10;;;;;;;66.65;34.70;;;6.30;28.30;;;;;;5074088;28;20028;-68
2021/01/20 11:25:38;;;;;;;69.30;34.78;;;6.40;28.50;;;;;;5063756;28;20091;-68
2021/01/20 11:28:04;;;;;;;44.33;25.23;;;6.10;28.30;;;;;;5068396;28;20230;-68
2021/01/20 11:30:29;;;;;;;49.85;26.95;;;6.00;28.60;;;;;;5069338;28;20036;-69
2021/01/20 11:32:55;;;;;;;49.53;27.83;;;5.80;28.10;;;;;;5092305;28;20512;-69
2021/01/20 11:35:22;;;;;;;59.53;28.70;;;5.50;28.20;;;;;;5067354;28;20501;-67
2021/01/20 11:37:48;;;;;;;47.53;26.90;;;5.40;28.40;;;;;;5077663;28;20024;-67
2021/01/20 11:40:14;;;;;;;55.10;30.10;;;5.60;28.60;;;;;;5077606;28;20054;-67
2021/01/20 11:42:41;;;;;;;58.83;30.42;;;5.90;28.80;;;;;;5067342;28;20073;-67
2021/01/20 11:45:07;;;;;;;82.40;41.00;;;6.00;28.60;;;;;;5095685;28;20016;-67
2021/01/20 11:47:35;;;;;;;46.72;27.73;;;5.80;28.40;;;;;;5095430;28;20555;-67
2021/01/20 11:50:01;;;;;;;49.03;27.65;;;5.60;28.30;;;;;;5066934;28;20021;-68
2021/01/20 11:52:26;;;;;;;52.10;30.70;;;4.90;27.90;;;;;;5067475;28;20102;-68
2021/01/20 11:54:52;;;;;;;36.83;21.73;;;4.40;28.00;;;;;;5077144;28;20024;-68
2021/01/20 11:57:18;;;;;;;44.97;24.13;;;4.20;28.50;;;;;;5095587;28;20020;-67
2021/01/20 11:59:43;;;;;;;36.70;21.45;;;4.40;28.80;;;;;;5076852;28;20394;-67
2021/01/20 12:02:10;;;;;;;43.20;21.42;;;4.50;28.60;;;;;;5076764;28;20027;-70
2021/01/20 12:04:36;;;;;;;49.42;25.70;;;4.50;28.20;;;;;;5077178;28;20028;-71
2021/01/20 12:07:01;;;;;;;37.75;19.23;;;4.60;28.40;;;;;;5076980;28;20392;-66
2021/01/20 12:09:27;;;;;;;46.28;23.77;;;4.40;28.00;;;;;;5095196;28;20474;-67
2021/01/20 12:11:53;;;;;;;39.22;21.42;;;4.30;28.30;;;;;;5095182;28;20028;-67
2021/01/20 12:14:19;;;;;;;51.20;26.25;;;4.10;28.60;;;;;;5095312;28;20059;-67
2021/01/20 12:16:45;;;;;;;46.17;25.65;;;3.90;28.40;;;;;;5077168;28;20063;-72
2021/01/20 12:19:12;;;;;;;44.08;25.05;;;3.60;28.20;;;;;;5080847;28;20063;-68
2021/01/20 12:21:37;;;;;;;36.38;19.73;;;3.20;28.40;;;;;;5077236;28;20024;-68
2021/01/20 12:24:04;;;;;;;110.95;42.78;;;3.00;28.80;;;;;;5076622;28;20558;-67
2021/01/20 12:26:30;;;;;;;51.10;25.10;;;2.90;28.70;;;;;;5076795;28;20024;-67
2021/01/20 12:28:56;;;;;;;51.03;26.92;;;2.40;28.50;;;;;;5094705;28;20081;-67
2021/01/20 12:31:21;;;;;;;85.47;37.13;;;1.90;28.90;;;;;;5076528;28;20024;-67
2021/01/20 12:33:47;;;;;;;127.80;46.95;;;1.60;29.50;;;;;;5094511;28;20070;-67
2021/01/20 12:36:13;;;;;;;107.00;45.90;;;1.30;30.00;;;;;;5094430;28;20032;-67
2021/01/20 12:38:39;;;;;;;132.90;53.58;;;1.00;30.70;;;;;;5094705;28;20054;-67
2021/01/20 12:41:04;;;;;;;62.78;30.98;;;0.90;31.30;;;;;;5094806;28;20344;-66
2021/01/20 12:43:30;;;;;;;62.03;31.48;;;0.80;31.80;;;;;;5094555;28;20427;-66
2021/01/20 12:45:56;;;;;;;59.13;30.75;;;0.70;32.10;;;;;;5093817;28;20047;-66
2021/01/20 12:48:22;;;;;;;92.95;41.17;;;0.60;32.20;;;;;;5076404;28;20032;-67
2021/01/20 12:50:48;;;;;;;91.38;44.75;;;0.30;32.90;;;;;;5076458;28;20028;-67
2021/01/20 12:53:14;;;;;;;77.07;38.17;;;0.00;32.60;;;;;;5094687;28;20484;-66
2021/01/20 12:55:40;;;;;;;69.72;35.17;;;-0.20;33.10;;;;;;5076251;28;20048;-66
2021/01/20 12:58:06;;;;;;;79.82;34.40;;;-0.50;33.40;;;;;;5093973;28;20051;-67
2021/01/20 13:00:31;;;;;;;66.40;33.40;;;-0.80;33.60;;;;;;5076285;28;20377;-66
2021/01/20 13:02:57;;;;;;;86.75;36.78;;;-1.10;34.20;;;;;;5094025;28;20028;-65
2021/01/20 13:05:23;;;;;;;64.57;31.65;;;-1.10;34.70;;;;;;5094446;28;20024;-67
2021/01/20 13:07:49;;;;;;;53.30;26.35;;;-1.30;34.30;;;;;;5075733;28;20470;-70
2021/01/20 13:10:15;;;;;;;32.40;16.40;;;-1.60;34.40;;;;;;5093809;28;20065;-67
2021/01/20 13:12:41;;;;;;;50.00;23.08;;;-1.80;34.40;;;;;;5094284;28;20097;-66
2021/01/20 13:15:07;;;;;;;89.53;33.08;;;-2.10;34.30;;;;;;5075534;28;20466;-66
2021/01/20 13:17:33;;;;;;;32.00;16.95;;;-2.60;34.20;;;;;;5093769;28;20044;-66
2021/01/20 13:19:59;;;;;;;32.50;17.27;;;-2.90;34.70;;;;;;5093876;28;20584;-66
2021/01/20 13:22:25;;;;;;;53.63;22.17;;;-3.40;34.60;;;;;;5075711;28;20020;-66
2021/01/20 13:24:51;;;;;;;36.28;18.30;;;-3.80;34.90;;;;;;5094057;28;20032;-67
2021/01/20 13:27:17;;;;;;;37.97;19.00;;;-4.20;35.40;;;;;;5093638;28;20046;-67
2021/01/20 13:29:42;;;;;;;42.75;19.27;;;-4.50;35.60;;;;;;5093672;28;20077;-66
2021/01/20 13:32:11;;;;;;;38.42;19.42;;;-4.80;36.20;;;;;;5075188;28;20461;-67
2021/01/20 13:34:38;;;;;;;41.75;20.33;;;-5.00;36.60;;;;;;5093723;28;20055;-66
2021/01/20 13:37:04;;;;;;;54.95;23.40;;;-5.30;36.70;;;;;;5075706;28;20050;-67
2021/01/20 13:39:31;;;;;;;61.83;27.75;;;-5.50;36.90;;;;;;5075069;28;20073;-67
2021/01/20 13:41:58;;;;;;;56.80;26.85;;;-5.70;37.30;;;;;;5075196;28;20070;-67
2021/01/20 13:44:23;;;;;;;49.65;21.55;;;-5.90;37.50;;;;;;5075353;28;20024;-67
2021/01/20 13:46:49;;;;;;;45.83;20.40;;;-6.00;37.70;;;;;;5075144;28;20059;-67
2021/01/20 13:49:15;;;;;;;67.22;30.85;;;-6.10;38.10;;;;;;5093427;28;20043;-67
2021/01/20 13:51:40;;;;;;;78.13;34.88;;;-6.20;38.20;;;;;;5075510;28;20024;-67
2021/01/20 13:54:06;;;;;;;111.53;48.53;;;-6.30;38.30;;;;;;5075218;28;20069;-67
2021/01/20 13:56:32;;;;;;;141.32;58.20;;;-6.40;38.40;;;;;;5086858;28;20031;-67
2021/01/20 13:58:58;;;;;;;174.93;73.07;;;-6.40;38.70;;;;;;5066530;28;20035;-66
2021/01/20 14:01:24;;;;;;;115.00;50.85;;;-6.50;38.90;;;;;;5093245;28;20056;-67
2021/01/20 14:03:51;;;;;;;130.73;50.83;;;-6.70;39.10;;;;;;5093268;28;20055;-67
2021/01/20 14:06:20;;;;;;;76.13;33.25;;;-6.80;39.20;;;;;;5075283;28;20073;-66
2021/01/20 14:08:46;;;;;;;68.32;30.65;;;-7.00;39.50;;;;;;5074721;28;20075;-67
2021/01/20 14:11:11;;;;;;;90.82;38.80;;;-7.10;39.80;;;;;;5093144;28;20060;-66
2021/01/20 14:13:40;;;;;;;82.60;34.78;;;-7.20;40.80;;;;;;5074721;28;20114;-66
2021/01/20 14:16:06;;;;;;;78.72;35.13;;;-7.40;40.40;;;;;;5074794;28;20024;-67
2021/01/20 14:18:33;;;;;;;67.55;30.00;;;-7.50;40.90;;;;;;5093083;28;20032;-67
2021/01/20 14:20:59;;;;;;;79.65;34.88;;;-7.70;41.20;;;;;;5075142;28;20028;-67
2021/01/20 14:23:25;;;;;;;84.47;36.13;;;-7.80;41.50;;;;;;5093247;28;20104;-67
2021/01/20 14:25:51;;;;;;;77.32;34.53;;;-7.90;41.90;;;;;;5074545;28;20090;-67
2021/01/20 14:28:16;;;;;;;79.50;33.10;;;-8.00;42.20;;;;;;5074626;28;20024;-67
2021/01/20 14:30:42;;;;;;;87.95;37.92;;;-8.10;42.60;;;;;;5092747;28;20527;-66
2021/01/20 14:33:08;;;;;;;88.18;37.00;;;-8.20;42.90;;;;;;5093259;28;20028;-66
2021/01/20 14:35:33;;;;;;;90.63;38.78;;;-8.20;43.30;;;;;;5074777;28;20028;-66
2021/01/20 14:37:59;;;;;;;100.25;40.45;;;-8.30;43.50;;;;;;5092794;28;20032;-66
2021/01/20 14:40:26;;;;;;;101.25;41.33;;;-8.40;43.80;;;;;;5092913;28;20027;-66
2021/01/20 14:42:55;;;;;;;100.03;43.22;;;-8.50;44.10;;;;;;5092473;28;20389;-66
2021/01/20 14:45:21;;;;;;;88.82;37.28;;;-8.60;44.30;;;;;;5074810;28;20020;-66
2021/01/20 14:47:46;;;;;;;93.93;41.13;;;-8.60;44.60;;;;;;5092684;28;20087;-66
2021/01/20 14:50:13;;;;;;;81.35;35.80;;;-8.70;44.90;;;;;;5092582;28;20473;-66
2021/01/20 14:52:38;;;;;;;96.80;40.13;;;-8.80;45.10;;;;;;5092338;28;20034;-65
2021/01/20 14:55:05;;;;;;;105.03;43.88;;;-8.80;45.40;;;;;;5074623;28;20446;-68
2021/01/20 14:57:31;;;;;;;73.63;35.15;;;-8.90;46.30;;;;;;5074288;28;20111;-67
2021/01/20 14:59:57;;;;;;;102.57;46.10;;;-8.90;45.90;;;;;;5091815;28;20111;-67
2021/01/20 15:02:22;;;;;;;105.85;45.78;;;-9.00;46.00;;;;;;5092420;28;20023;-67
2021/01/20 15:04:48;;;;;;;110.70;47.63;;;-9.00;46.30;;;;;;5073644;28;20028;-68
2021/01/20 15:07:14;;;;;;;85.07;37.72;;;-9.10;46.30;;;;;;5091039;28;20059;-68
2021/01/20 15:09:39;;;;;;;98.00;40.60;;;-9.10;46.70;;;;;;5077650;28;20122;-68
2021/01/20 15:12:06;;;;;;;122.30;55.63;;;-9.10;47.00;;;;;;5095723;28;20020;-68
2021/01/20 15:14:32;;;;;;;147.13;67.22;;;-9.20;47.10;;;;;;5078422;28;20111;-67
2021/01/20 15:16:57;;;;;;;168.68;78.68;;;-9.20;47.20;;;;;;5078074;28;20024;-67
2021/01/20 15:19:23;;;;;;;180.63;81.25;;;-9.20;47.30;;;;;;5078302;28;20447;-67
2021/01/20 15:21:49;;;;;;;115.20;50.45;;;-9.30;47.50;;;;;;5096457;28;20034;-67
2021/01/20 15:24:14;;;;;;;113.03;50.75;;;-9.30;47.60;;;;;;5095686;28;20020;-67
2021/01/20 15:26:40;;;;;;;111.07;47.85;;;-9.40;47.60;;;;;;5095850;28;20107;-67
2021/01/20 15:29:06;;;;;;;90.85;42.28;;;-9.40;47.70;;;;;;5096061;28;20099;-68
2021/01/20 15:31:31;;;;;;;136.15;53.00;;;-9.40;47.80;;;;;;5095873;28;20466;-68
2021/01/20 15:33:57;;;;;;;101.47;41.15;;;-9.40;47.90;;;;;;5095777;28;20031;-68
2021/01/20 15:36:24;;;;;;;114.78;44.70;;;-9.40;48.00;;;;;;5077673;28;20093;-68
2021/01/20 15:38:50;;;;;;;96.95;37.03;;;-9.40;48.20;;;;;;5095857;28;20020;-70
2021/01/20 15:41:16;;;;;;;113.50;46.42;;;-9.50;48.30;;;;;;5095583;28;20384;-66
2021/01/20 15:43:41;;;;;;;81.88;36.03;;;-9.50;48.40;;;;;;5077752;28;20077;-67
2021/01/20 15:46:07;;;;;;;89.43;36.25;;;-9.50;48.40;;;;;;5077042;28;20063;-67
2021/01/20 15:48:33;;;;;;;81.85;33.40;;;-9.50;48.50;;;;;;5096119;28;20028;-67
2021/01/20 15:50:58;;;;;;;90.50;38.53;;;-9.50;48.50;;;;;;5077148;28;20059;-67
2021/01/20 15:53:24;;;;;;;99.28;39.40;;;-9.60;48.50;;;;;;5095506;28;20473;-66
2021/01/20 15:55:50;;;;;;;140.95;53.67;;;-9.60;48.80;;;;;;5077122;28;20027;-68
2021/01/20 15:58:16;;;;;;;115.03;43.90;;;-9.70;48.70;;;;;;5095425;28;20020;-67
2021/01/20 16:00:42;;;;;;;172.82;65.82;;;-9.70;48.70;;;;;;5095620;28;20466;-67
2021/01/20 16:03:08;;;;;;;134.40;55.38;;;-9.70;48.80;;;;;;5095876;28;20111;-67
2021/01/20 16:05:35;;;;;;;142.43;56.60;;;-9.80;48.90;;;;;;5077241;28;20454;-67
2021/01/20 16:08:01;;;;;;;174.13;69.07;;;-9.80;49.00;;;;;;5076813;28;20032;-67
2021/01/20 16:10:27;;;;;;;190.93;75.95;;;-9.80;49.00;;;;;;5095043;28;20371;-68
2021/01/20 16:12:55;;;;;;;296.88;111.30;;;-9.90;48.90;;;;;;5077206;28;20028;-69
2021/01/20 16:15:23;;;;;;;185.35;73.50;;;-9.90;49.00;;;;;;5095127;28;20111;-67
2021/01/20 16:17:49;;;;;;;143.40;60.35;;;-9.90;49.10;;;;;;5077045;28;20016;-67
2021/01/20 16:20:16;;;;;;;168.85;70.90;;;-9.90;49.10;;;;;;5076233;28;20020;-68
2021/01/20 16:22:42;;;;;;;202.30;76.82;;;-9.90;49.10;;;;;;5076868;28;20016;-67
2021/01/20 16:25:09;;;;;;;203.60;73.63;;;-9.90;49.10;;;;;;5094988;28;20381;-67
2021/01/20 16:27:36;;;;;;;263.45;91.57;;;-9.90;49.20;;;;;;5075806;28;20067;-69
2021/01/20 16:30:04;;;;;;;239.27;90.13;;;-10.00;49.10;;;;;;5075481;28;20086;-69
2021/01/20 16:32:30;;;;;;;178.23;69.22;;;-10.00;49.10;;;;;;5076026;28;20382;-69
2021/01/20 16:34:56;;;;;;;200.07;82.75;;;-10.00;49.10;;;;;;5076370;28;20477;-69
2021/01/20 16:37:22;;;;;;;175.40;65.57;;;-10.00;49.10;;;;;;5093915;28;20210;-69
2021/01/20 16:39:49;;;;;;;163.10;63.60;;;-10.10;49.10;;;;;;5094798;28;20020;-70
2021/01/20 16:42:14;;;;;;;175.35;68.97;;;-10.10;49.30;;;;;;5094929;28;20036;-69
2021/01/20 16:44:40;;;;;;;238.55;87.00;;;-10.20;49.40;;;;;;5076332;28;20113;-69
2021/01/20 16:47:07;;;;;;;163.05;61.10;;;-10.20;49.60;;;;;;5094327;28;20482;-69
2021/01/20 16:49:34;;;;;;;144.60;50.67;;;-10.20;49.70;;;;;;5094496;28;20032;-68
2021/01/20 16:52:00;;;;;;;121.60;44.60;;;-10.30;49.80;;;;;;5093773;28;20390;-69
2021/01/20 16:54:26;;;;;;;125.90;50.38;;;-10.30;49.80;;;;;;5076667;28;20489;-69
2021/01/20 16:56:52;;;;;;;115.05;43.17;;;-10.30;50.00;;;;;;5094734;28;20027;-69
2021/01/20 16:59:18;;;;;;;90.50;39.85;;;-10.30;50.30;;;;;;5094396;28;20393;-69
2021/01/20 17:01:45;;;;;;;123.10;47.88;;;-10.30;50.40;;;;;;5094238;28;20112;-69
2021/01/20 17:04:14;;;;;;;123.70;48.90;;;-10.20;50.50;;;;;;5075989;28;20031;-69
2021/01/20 17:06:40;;;;;;;137.50;53.33;;;-10.20;50.50;;;;;;5093798;28;20046;-69
2021/01/20 17:09:07;;;;;;;152.60;58.90;;;-10.10;50.50;;;;;;5094109;28;20024;-71
2021/01/20 17:11:33;;;;;;;172.98;61.70;;;-10.10;50.50;;;;;;5094175;28;20035;-67
2021/01/20 17:13:59;;;;;;;150.95;48.60;;;-10.00;50.70;;;;;;5075240;28;20028;-68
2021/01/20 17:16:25;;;;;;;137.02;46.97;;;-9.90;50.80;;;;;;5075437;28;20363;-69
2021/01/20 17:18:50;;;;;;;149.00;55.72;;;-9.80;50.90;;;;;;5092854;28;20020;-68
2021/01/20 17:21:16;;;;;;;120.85;49.22;;;-9.70;50.80;;;;;;5093566;28;20081;-68
2021/01/20 17:23:42;;;;;;;89.03;35.33;;;-9.70;50.70;;;;;;5093916;28;20085;-69
2021/01/20 17:26:07;;;;;;;105.55;42.83;;;-9.60;50.70;;;;;;5092512;28;20056;-68
2021/01/20 17:28:33;;;;;;;162.52;58.47;;;-9.60;50.70;;;;;;5092968;28;20032;-74
2021/01/20 17:30:59;;;;;;;93.70;36.28;;;-9.50;50.80;;;;;;5092457;28;20369;-68
2021/01/20 17:33:27;;;;;;;102.45;40.58;;;-9.40;50.90;;;;;;5073749;28;20024;-69
2021/01/20 17:35:53;;;;;;;103.45;41.15;;;-9.20;50.90;;;;;;5087684;28;20043;-69
2021/01/20 17:38:19;;;;;;;101.65;41.78;;;-9.20;50.70;;;;;;5072955;28;20028;-69
2021/01/20 17:40:45;;;;;;;107.10;43.13;;;-9.20;50.50;;;;;;5092348;28;20020;-69
2021/01/20 17:43:10;;;;;;;96.55;39.60;;;-9.20;50.50;;;;;;5092345;28;20020;-68
2021/01/20 17:45:36;;;;;;;76.00;31.83;;;-9.10;50.60;;;;;;5075712;28;20028;-68
2021/01/20 17:48:03;;;;;;;86.88;35.25;;;-9.10;50.60;;;;;;5073966;28;20051;-68
2021/01/20 17:50:28;;;;;;;89.30;37.35;;;-9.00;50.50;;;;;;5073578;28;20028;-70
2021/01/20 17:52:54;;;;;;;113.38;42.65;;;-9.10;50.40;;;;;;5092684;28;20039;-68
2021/01/20 17:55:22;;;;;;;177.63;56.05;;;-9.10;50.40;;;;;;5074163;28;20100;-68
2021/01/20 17:57:48;;;;;;;153.02;54.90;;;-9.10;50.50;;;;;;5092410;28;20020;-68
2021/01/20 18:00:14;;;;;;;132.52;47.00;;;-9.20;50.50;;;;;;5092264;28;20487;-68
2021/01/20 18:02:40;;;;;;;105.18;41.92;;;-9.20;50.60;;;;;;5072328;28;20378;-69
2021/01/20 18:05:07;;;;;;;130.98;48.42;;;-9.20;50.50;;;;;;5092012;28;20027;-68
2021/01/20 18:07:33;;;;;;;138.88;49.08;;;-9.30;50.50;;;;;;5074164;28;20024;-67
2021/01/20 18:09:59;;;;;;;119.10;45.85;;;-9.30;50.80;;;;;;5073820;28;20078;-68
2021/01/20 18:12:25;;;;;;;96.82;41.38;;;-9.30;50.80;;;;;;5074337;28;20052;-68
2021/01/20 18:14:50;;;;;;;97.80;40.15;;;-9.30;50.80;;;;;;5091874;28;20047;-68
2021/01/20 18:17:16;;;;;;;75.38;31.67;;;-9.30;50.90;;;;;;5092264;28;20087;-68
2021/01/20 18:19:46;;;;;;;78.88;35.00;;;-9.40;50.90;;;;;;5090020;28;20024;-68
2021/01/20 18:22:11;;;;;;;64.90;27.98;;;-9.40;51.00;;;;;;5092293;28;20039;-68
2021/01/20 18:24:37;;;;;;;76.93;31.20;;;-9.40;51.20;;;;;;5073994;28;20020;-68
2021/01/20 18:27:03;;;;;;;76.43;33.85;;;-9.30;51.30;;;;;;5073552;28;20474;-68
2021/01/20 18:29:29;;;;;;;60.80;27.23;;;-9.30;51.30;;;;;;5092150;28;20028;-67
2021/01/20 18:31:55;;;;;;;66.03;29.70;;;-9.30;51.30;;;;;;5091790;28;20028;-70
2021/01/20 18:34:21;;;;;;;67.63;29.50;;;-9.40;51.20;;;;;;5091977;28;20042;-68
2021/01/20 18:36:47;;;;;;;104.10;38.05;;;-9.40;51.20;;;;;;5092159;28;20142;-68
2021/01/20 18:39:14;;;;;;;84.18;33.75;;;-9.40;51.20;;;;;;5091834;28;20104;-68
2021/01/20 18:41:41;;;;;;;61.65;28.67;;;-9.40;51.30;;;;;;5070964;28;20052;-68
2021/01/20 18:44:10;;;;;;;54.63;25.92;;;-9.40;51.60;;;;;;5094342;28;20020;-67
2021/01/20 18:46:37;;;;;;;64.45;29.92;;;-9.40;51.60;;;;;;5096079;28;20044;-71
2021/01/20 18:49:03;;;;;;;79.65;34.75;;;-9.40;51.80;;;;;;5075454;28;20052;-68
2021/01/20 18:51:29;;;;;;;87.85;37.30;;;-9.30;51.90;;;;;;5066032;28;20028;-68
2021/01/20 18:53:55;;;;;;;73.70;31.95;;;-9.30;51.90;;;;;;5077757;28;20032;-69
2021/01/20 18:56:22;;;;;;;68.43;29.30;;;-9.20;52.00;;;;;;5096245;28;20347;-68
2021/01/20 18:58:48;;;;;;;71.70;30.02;;;-9.20;52.00;;;;;;5075730;28;20060;-71
2021/01/20 19:01:14;;;;;;;67.25;32.22;;;-9.20;51.90;;;;;;5087202;28;20039;-69
2021/01/20 19:03:40;;;;;;;72.70;34.55;;;-9.20;52.00;;;;;;5074232;28;20373;-74
2021/01/20 19:06:06;;;;;;;74.40;34.80;;;-9.20;52.10;;;;;;5068904;28;20028;-68
2021/01/20 19:08:35;;;;;;;87.30;35.85;;;-9.20;52.30;;;;;;5070639;28;20032;-68
2021/01/20 19:11:02;;;;;;;92.60;36.85;;;-9.20;52.30;;;;;;5075293;28;20480;-69
2021/01/20 19:13:31;;;;;;;89.88;36.50;;;-9.10;52.60;;;;;;5090434;28;20519;-70
2021/01/20 19:15:57;;;;;;;95.30;37.13;;;-9.10;52.70;;;;;;5068279;28;20107;-70
2021/01/20 19:18:22;;;;;;;71.20;29.33;;;-9.00;52.90;;;;;;5066955;28;20115;-70
2021/01/20 19:20:48;;;;;;;73.72;30.30;;;-8.90;52.90;;;;;;5087866;28;20454;-68
2021/01/20 19:23:14;;;;;;;74.07;29.92;;;-8.90;52.70;;;;;;5093738;28;20032;-68
2021/01/20 19:25:41;;;;;;;72.95;31.33;;;-8.90;52.70;;;;;;5080971;28;20111;-68
2021/01/20 19:28:07;;;;;;;77.30;33.15;;;-8.80;52.80;;;;;;5062202;28;20059;-68
2021/01/20 19:30:32;;;;;;;70.90;31.60;;;-8.80;52.90;;;;;;5089308;28;20519;-68
2021/01/20 19:32:58;;;;;;;76.88;36.00;;;-8.80;53.00;;;;;;5073883;28;20034;-69
2021/01/20 19:35:24;;;;;;;68.55;29.40;;;-8.70;53.10;;;;;;5089302;28;20477;-69
2021/01/20 19:37:50;;;;;;;69.72;32.22;;;-8.70;53.00;;;;;;5085197;28;20035;-70
2021/01/20 19:40:16;;;;;;;72.07;29.60;;;-8.70;53.10;;;;;;5083518;28;20016;-70
2021/01/20 19:42:42;;;;;;;77.28;33.13;;;-8.70;53.30;;;;;;5080094;28;20029;-69
2021/01/20 19:45:08;;;;;;;66.95;29.13;;;-8.60;53.40;;;;;;5090760;28;20086;-69
2021/01/20 19:47:34;;;;;;;89.60;37.03;;;-8.60;53.50;;;;;;5084446;28;20101;-69
2021/01/20 19:50:00;;;;;;;112.07;44.58;;;-8.50;53.70;;;;;;5060719;28;20475;-70
2021/01/20 19:52:26;;;;;;;118.53;48.03;;;-8.40;53.80;;;;;;5083906;28;20032;-69
2021/01/20 19:54:51;;;;;;;102.32;43.80;;;-8.40;53.80;;;;;;5080244;28;20020;-69
2021/01/20 19:57:17;;;;;;;117.55;46.08;;;-8.30;53.90;;;;;;5096618;28;20359;-69
2021/01/20 19:59:43;;;;;;;87.55;39.13;;;-8.30;53.90;;;;;;5079026;28;20034;-68
2021/01/20 20:02:10;;;;;;;76.07;35.05;;;-8.30;54.00;;;;;;5070103;28;20390;-68
2021/01/20 20:04:36;;;;;;;74.22;34.90;;;-8.20;54.20;;;;;;5090372;28;20057;-68
2021/01/20 20:07:02;;;;;;;81.97;37.03;;;-8.10;54.70;;;;;;5068983;28;20032;-69
2021/01/20 20:09:30;;;;;;;86.10;34.97;;;-8.10;54.10;;;;;;5076288;28;20036;-70
2021/01/20 20:11:56;;;;;;;92.20;37.85;;;-8.10;54.20;;;;;;5078656;28;20043;-71
2021/01/20 20:14:22;;;;;;;95.75;38.58;;;-8.10;54.40;;;;;;5091068;28;20028;-69
2021/01/20 20:16:48;;;;;;;111.53;41.92;;;-8.00;54.50;;;;;;5077986;28;20382;-70
2021/01/20 20:19:13;;;;;;;116.45;46.67;;;-7.90;54.60;;;;;;5074085;28;20149;-69
2021/01/20 20:21:39;;;;;;;131.57;52.22;;;-7.80;54.60;;;;;;5085302;28;20024;-69
2021/01/20 20:24:06;;;;;;;148.50;55.67;;;-7.70;54.70;;;;;;5093228;28;20020;-69
2021/01/20 20:26:31;;;;;;;142.30;57.75;;;-7.70;54.60;;;;;;5074772;28;20046;-72
2021/01/20 20:28:57;;;;;;;149.05;58.80;;;-7.60;54.60;;;;;;5068458;28;20490;-70
2021/01/20 20:31:23;;;;;;;108.88;49.25;;;-7.60;54.60;;;;;;5090180;28;20043;-70
2021/01/20 20:33:49;;;;;;;116.30;50.33;;;-7.60;54.70;;;;;;5090266;28;20020;-68
2021/01/20 20:36:15;;;;;;;92.60;42.00;;;-7.50;54.90;;;;;;5075828;28;20020;-75
2021/01/20 20:38:40;;;;;;;99.13;41.80;;;-7.50;55.00;;;;;;5068241;28;20111;-69
2021/01/20 20:41:06;;;;;;;130.35;56.70;;;-7.40;54.90;;;;;;5083126;28;20123;-70
2021/01/20 20:43:32;;;;;;;105.93;42.42;;;-7.40;55.00;;;;;;5099377;28;20032;-70
2021/01/20 20:45:58;;;;;;;106.63;44.83;;;-7.40;55.10;;;;;;5093963;28;20054;-69
2021/01/20 20:48:23;;;;;;;93.22;39.55;;;-7.30;55.20;;;;;;5080411;28;20118;-70
2021/01/20 20:50:49;;;;;;;76.85;34.88;;;-7.30;55.20;;;;;;5088622;28;20035;-70
2021/01/20 20:53:15;;;;;;;68.20;28.67;;;-7.30;55.30;;;;;;5110068;28;20103;-70
2021/01/20 20:55:41;;;;;;;55.75;27.58;;;-7.30;55.30;;;;;;5091244;28;20023;-71
2021/01/20 20:58:08;;;;;;;53.25;24.20;;;-7.20;55.60;;;;;;5082426;28;20026;-69
2021/01/20 21:00:35;;;;;;;48.53;21.40;;;-7.20;55.90;;;;;;5096204;28;20023;-70
2021/01/20 21:03:01;;;;;;;51.70;22.10;;;-7.10;55.90;;;;;;5105144;28;20063;-69
2021/01/20 21:05:27;;;;;;;52.85;23.20;;;-7.00;56.10;;;;;;5094084;28;20056;-74
2021/01/20 21:07:53;;;;;;;52.00;22.88;;;-7.00;56.20;;;;;;5084505;28;20056;-72
2021/01/20 21:10:18;;;;;;;56.13;26.48;;;-7.00;56.10;;;;;;5089173;28;20457;-72
2021/01/20 21:12:46;;;;;;;81.82;31.05;;;-6.90;56.30;;;;;;5070235;28;20433;-73
2021/01/20 21:15:12;;;;;;;177.80;56.85;;;-6.90;57.20;;;;;;5080588;28;20028;-72
2021/01/20 21:17:38;;;;;;;162.90;48.25;;;-6.80;56.60;;;;;;5085284;28;20090;-73
2021/01/20 21:20:05;;;;;;;47.33;21.17;;;-6.80;56.70;;;;;;5093466;28;20082;-72
2021/01/20 21:22:31;;;;;;;82.22;30.70;;;-6.70;56.80;;;;;;5093696;28;20037;-73
2021/01/20 21:24:57;;;;;;;62.30;24.85;;;-6.70;56.80;;;;;;5103570;28;20355;-72
2021/01/20 21:27:23;;;;;;;81.25;34.00;;;-6.60;56.90;;;;;;5079383;28;20055;-71
2021/01/20 21:29:49;;;;;;;123.68;40.83;;;-6.60;56.90;;;;;;5074521;28;20040;-88
2021/01/20 21:32:15;;;;;;;75.30;30.85;;;-6.50;57.00;;;;;;5083128;28;20040;-72
2021/01/20 21:34:40;;;;;;;140.45;43.40;;;-6.50;57.10;;;;;;5069084;28;20115;-75
2021/01/20 21:37:06;;;;;;;109.05;37.13;;;-6.40;57.10;;;;;;5081828;28;20058;-72
2021/01/20 21:39:32;;;;;;;131.23;41.20;;;-6.40;57.20;;;;;;5088545;28;20028;-72
2021/01/20 21:41:58;;;;;;;84.95;33.03;;;-6.40;57.30;;;;;;5087395;28;21958;-68
2021/01/20 21:44:24;;;;;;;196.05;51.65;;;-6.40;57.40;;;;;;5093633;28;20024;-68
2021/01/20 21:46:49;;;;;;;82.82;29.23;;;-6.40;57.50;;;;;;5062780;28;20106;-67
2021/01/20 21:49:16;;;;;;;116.40;37.92;;;-6.50;57.70;;;;;;5066592;28;20047;-67
2021/01/20 21:51:42;;;;;;;89.18;28.80;;;-6.50;58.00;;;;;;5052325;28;20024;-68
2021/01/20 21:54:08;;;;;;;79.10;28.17;;;-6.50;58.30;;;;;;5055308;28;20063;-69
2021/01/20 21:56:34;;;;;;;57.88;22.10;;;-6.50;58.60;;;;;;5047884;28;20174;-67
2021/01/20 21:59:00;;;;;;;57.28;22.58;;;-6.50;58.80;;;;;;5051306;28;20115;-67
2021/01/20 22:01:26;;;;;;;65.35;24.23;;;-6.40;59.00;;;;;;5045647;28;20063;-68
2021/01/20 22:03:51;;;;;;;75.07;28.35;;;-6.40;59.10;;;;;;5048295;28;20028;-68